Time;durP1;ratioP1;P1;durP2;ratioP2;P2;SDS_P1;SDS_P2;PMS_P1;PMS_P2;Temp;Humidity;BMP_temperature;BMP_pressure;BME280_temperature;BME280_humidity;BME280_pressure;Samples;Min_cycle;Max_cycle;Signal;HPM_P1;HPM_P2
2022/06/09 00:02:01;;;;;;;12.02;3.38;;;;;;;21.62;41.27;100736.75;5034161;28;20071;-80
2022/06/09 00:04:39;;;;;;;10.55;2.35;;;;;;;21.52;41.49;100738.25;5018715;28;20037;-79
2022/06/09 00:07:10;;;;;;;12.88;3.22;;;;;;;21.44;41.55;100736.63;5034118;28;20030;-78
2022/06/09 00:09:42;;;;;;;12.35;4.47;;;;;;;21.42;41.66;100734.25;5016361;28;20029;-79
2022/06/09 00:12:09;;;;;;;10.88;2.58;;;;;;;21.39;41.70;100742.56;5034060;28;20083;-78
2022/06/09 00:14:36;;;;;;;11.75;2.67;;;;;;;21.19;42.42;100739.19;5033767;28;20108;-78
2022/06/09 00:17:01;;;;;;;16.55;3.10;;;;;;;21.13;42.29;100741.53;5033767;28;20052;-78
2022/06/09 00:19:27;;;;;;;9.65;3.10;;;;;;;21.05;42.50;100737.09;5033888;28;20025;-78
2022/06/09 00:21:53;;;;;;;16.95;4.15;;;;;;;21.14;42.34;100736.78;5033902;28;20029;-77
2022/06/09 00:24:19;;;;;;;11.68;3.25;;;;;;;21.09;42.51;100751.03;5033687;28;20033;-78
2022/06/09 00:26:45;;;;;;;13.07;2.75;;;;;;;21.13;42.47;100752.66;5033759;28;20030;-82
2022/06/09 00:29:12;;;;;;;12.98;3.35;;;;;;;21.15;42.29;100752.25;5033775;28;20602;-78
2022/06/09 00:31:37;;;;;;;12.52;3.17;;;;;;;21.11;42.43;100752.25;5032638;28;20109;-78
2022/06/09 00:34:03;;;;;;;11.70;2.88;;;;;;;21.10;42.29;100758.97;5033530;28;20552;-78
2022/06/09 00:36:31;;;;;;;18.60;3.67;;;;;;;21.10;42.40;100770.09;5015747;28;20033;-78
2022/06/09 00:38:57;;;;;;;16.50;3.45;;;;;;;21.17;42.34;100777.69;5033418;28;20030;-78
2022/06/09 00:41:24;;;;;;;8.60;2.65;;;;;;;;;;5033409;28;20109;-82
2022/06/09 00:43:50;;;;;;;13.23;3.42;;;;;;;21.11;42.52;100788.34;5015705;28;20063;-78
2022/06/09 00:46:23;;;;;;;8.20;2.72;;;;;;;21.08;42.66;100793.88;5015296;28;20045;-78
2022/06/09 00:48:51;;;;;;;19.40;3.97;;;;;;;21.24;42.08;100781.34;5032642;28;20037;-78
2022/06/09 00:51:38;;;;;;;13.63;3.92;;;;;;;20.95;42.84;100785.03;5033262;28;20029;-78
2022/06/09 00:54:25;;;;;;;20.77;4.07;;;;;;;21.16;42.39;100781.63;5033257;28;20365;-78
2022/06/09 00:57:22;;;;;;;18.88;3.25;;;;;;;21.21;42.32;100792.41;5033191;28;20029;-78
2022/06/09 00:59:53;;;;;;;16.15;3.92;;;;;;;21.17;42.46;100789.59;5020999;28;20033;-78
2022/06/09 01:02:21;;;;;;;12.52;3.42;;;;;;;21.18;42.34;100787.63;5033186;28;20083;-78
2022/06/09 01:04:50;;;;;;;14.40;3.65;;;;;;;21.09;42.72;100785.16;5033053;28;20104;-78
2022/06/09 01:07:22;;;;;;;16.73;3.88;;;;;;;21.12;42.70;100789.16;5033005;28;20029;-78
2022/06/09 01:09:48;;;;;;;12.23;4.00;;;;;;;20.99;43.08;100785.84;5015281;28;20101;-78
2022/06/09 01:12:44;;;;;;;21.83;3.45;;;;;;;20.97;43.26;100791.00;5032914;28;20041;-78
2022/06/09 01:15:14;;;;;;;16.25;4.22;;;;;;;20.79;43.58;100782.50;5020482;28;20128;-78
2022/06/09 01:18:03;;;;;;;14.85;3.33;;;;;;;20.39;44.77;100789.53;5032340;28;20399;-78
2022/06/09 01:20:49;;;;;;;11.20;3.17;;;;;;;20.53;44.36;100794.50;5014544;28;20042;-78
2022/06/09 01:23:45;;;;;;;17.60;3.35;;;;;;;20.78;43.93;100792.00;5032721;28;20026;-79
2022/06/09 01:26:39;;;;;;;12.48;3.78;;;;;;;20.84;43.75;100790.47;5032689;28;20068;-78
2022/06/09 01:29:18;;;;;;;12.55;3.50;;;;;;;20.57;44.33;100792.59;5032679;28;20033;-78
2022/06/09 01:32:00;;;;;;;13.88;3.38;;;;;;;20.63;44.54;100788.28;5032709;28;20049;-77
2022/06/09 01:34:26;;;;;;;12.32;4.15;;;;;;;20.87;43.83;100794.47;5032690;28;20034;-78
2022/06/09 01:36:56;;;;;;;12.57;3.47;;;;;;;20.63;44.30;100784.69;5032598;28;20431;-78
2022/06/09 01:39:29;;;;;;;;;;;;;;;20.93;43.59;100785.44;5015587;28;20064;-78
2022/06/09 01:41:55;;;;;;;16.20;4.20;;;;;;;21.08;43.38;100786.31;5032137;28;20379;-78
2022/06/09 01:44:20;;;;;;;13.90;3.10;;;;;;;21.03;43.47;100789.47;5032479;28;20060;-78
2022/06/09 01:46:47;;;;;;;11.73;3.22;;;;;;;20.95;43.77;100785.03;5032474;28;20166;-78
2022/06/09 01:49:24;;;;;;;11.27;3.28;;;;;;;20.87;43.97;100777.81;5032268;28;20044;-78
2022/06/09 01:51:52;;;;;;;13.93;3.60;;;;;;;20.62;44.67;100775.56;5032432;28;20048;-78
2022/06/09 01:54:23;;;;;;;12.57;3.72;;;;;;;20.69;44.77;100775.63;5032364;28;20107;-78
2022/06/09 01:56:57;;;;;;;15.52;2.90;;;;;;;20.46;45.42;100775.78;5032255;28;20038;-78
2022/06/09 01:59:30;;;;;;;12.00;3.22;;;;;;;20.66;45.01;100778.41;5032332;28;20480;-79
2022/06/09 02:02:03;;;;;;;12.05;3.70;;;;;;;20.74;44.71;100780.06;5032568;28;20033;-78
2022/06/09 02:04:40;;;;;;;13.07;3.60;;;;;;;20.82;44.22;100778.94;5032264;28;20469;-78
2022/06/09 02:07:08;;;;;;;10.02;3.28;;;;;;;20.94;44.18;100772.34;5014633;28;20026;-79
2022/06/09 02:09:35;;;;;;;12.90;3.38;;;;;;;20.86;44.48;100777.03;5032373;28;20032;-78
2022/06/09 02:12:10;;;;;;;14.82;4.03;;;;;;;20.93;44.37;100776.25;5014536;28;20041;-78
2022/06/09 02:14:38;;;;;;;15.50;3.53;;;;;;;20.90;44.35;100777.84;5032221;28;20025;-78
2022/06/09 02:17:07;;;;;;;11.73;3.17;;;;;;;20.86;44.42;100782.56;5010903;28;20112;-78
2022/06/09 02:19:34;;;;;;;10.93;3.15;;;;;;;20.77;44.63;100784.84;4992627;28;20508;-78
2022/06/09 02:22:01;;;;;;;11.55;2.95;;;;;;;20.86;44.21;100790.13;4992826;28;20022;-78
2022/06/09 02:24:27;;;;;;;14.55;3.20;;;;;;;20.96;44.11;100797.75;4992818;28;20030;-78
2022/06/09 02:26:52;;;;;;;13.38;3.53;;;;;;;20.97;44.07;100802.09;4992886;28;20034;-82
2022/06/09 02:29:18;;;;;;;12.77;3.47;;;;;;;21.08;43.55;100805.78;5008964;28;20105;-78
2022/06/09 02:31:44;;;;;;;15.25;4.47;;;;;;;21.16;43.50;100798.31;5012423;28;20053;-78
2022/06/09 02:34:10;;;;;;;12.52;3.13;;;;;;;21.29;43.24;100797.66;5012328;28;20366;-78
2022/06/09 02:36:36;;;;;;;15.95;3.65;;;;;;;21.35;43.02;100800.91;5011992;28;20096;-78
2022/06/09 02:39:03;;;;;;;13.02;3.53;;;;;;;21.37;42.98;100809.63;5012304;28;20030;-82
2022/06/09 02:41:28;;;;;;;16.08;3.85;;;;;;;21.43;42.78;100802.53;5012313;28;20034;-78
2022/06/09 02:43:54;;;;;;;16.25;3.17;;;;;;;21.41;42.73;100820.78;5012286;28;20034;-78
2022/06/09 02:46:20;;;;;;;11.38;2.30;;;;;;;21.38;42.67;100821.56;5012113;28;20070;-78
2022/06/09 02:48:45;;;;;;;13.50;3.22;;;;;;;21.37;42.68;100820.75;5012100;28;20030;-78
2022/06/09 02:51:23;;;;;;;12.77;2.80;;;;;;;21.30;42.71;100813.16;5012179;28;20074;-79
2022/06/09 02:53:49;;;;;;;13.60;3.15;;;;;;;21.31;42.64;100813.94;5012886;28;20542;-78
2022/06/09 02:56:15;;;;;;;17.45;3.60;;;;;;;21.29;42.65;100821.88;5015498;28;20029;-78
2022/06/09 02:58:41;;;;;;;16.83;3.63;;;;;;;21.23;42.62;100818.63;5015547;28;20110;-77
2022/06/09 03:01:07;;;;;;;8.38;2.63;;;;;;;21.17;42.60;100833.25;5015100;28;20041;-78
2022/06/09 03:03:33;;;;;;;14.52;3.22;;;;;;;21.15;42.44;100835.59;5015576;28;20034;-78
2022/06/09 03:05:59;;;;;;;13.15;4.10;;;;;;;21.14;42.43;100843.16;5015526;28;20034;-78
2022/06/09 03:08:26;;;;;;;15.52;3.38;;;;;;;21.17;42.42;100847.16;5015470;28;20040;-78
2022/06/09 03:10:52;;;;;;;12.43;3.42;;;;;;;21.05;42.58;100835.13;5015505;28;20026;-78
2022/06/09 03:13:18;;;;;;;15.00;3.75;;;;;;;21.09;42.59;100828.81;5015418;28;20049;-77
2022/06/09 03:15:47;;;;;;;7.95;3.65;;;;;;;21.18;42.38;100815.41;5015373;28;20112;-78
2022/06/09 03:18:14;;;;;;;15.60;3.70;;;;;;;21.23;42.30;100823.38;5030022;28;20056;-78
2022/06/09 03:20:40;;;;;;;12.93;3.42;;;;;;;21.24;42.61;100817.47;5035069;28;20108;-78
2022/06/09 03:23:06;;;;;;;12.05;3.10;;;;;;;21.27;42.28;100813.94;5035001;28;20033;-78
2022/06/09 03:25:32;;;;;;;11.52;3.35;;;;;;;21.30;42.47;100801.22;5034934;28;20041;-78
2022/06/09 03:27:58;;;;;;;13.15;3.58;;;;;;;21.32;42.46;100804.44;5034830;28;20036;-78
2022/06/09 03:30:23;;;;;;;15.15;3.75;;;;;;;21.34;42.31;100807.63;5034719;28;20036;-78
2022/06/09 03:32:49;;;;;;;11.93;3.58;;;;;;;21.40;42.30;100806.09;5034857;28;20025;-78
2022/06/09 03:35:16;;;;;;;10.90;2.30;;;;;;;21.45;42.13;100810.50;5034811;28;20025;-78
2022/06/09 03:37:41;;;;;;;12.80;3.95;;;;;;;21.48;42.04;100804.19;5034702;28;20028;-79
2022/06/09 03:40:12;;;;;;;14.60;3.03;;;;;;;21.49;41.65;100805.78;5034673;28;20472;-78
2022/06/09 03:42:38;;;;;;;14.13;3.33;;;;;;;21.41;42.23;100806.91;5034785;28;20029;-78
2022/06/09 03:45:04;;;;;;;14.05;3.45;;;;;;;21.47;42.20;100810.94;5034539;28;20033;-77
2022/06/09 03:47:29;;;;;;;14.00;3.20;;;;;;;21.40;42.03;100827.53;5034284;28;20072;-78
2022/06/09 03:49:55;;;;;;;15.85;4.10;;;;;;;21.40;42.14;100816.44;5034376;28;20029;-78
2022/06/09 03:52:21;;;;;;;14.20;3.60;;;;;;;21.52;41.95;100803.00;5034537;28;20437;-78
2022/06/09 03:54:46;;;;;;;12.30;3.42;;;;;;;21.22;42.59;100805.09;5034439;28;20025;-80
2022/06/09 03:57:12;;;;;;;7.85;3.10;;;;;;;21.30;42.48;100810.38;5034356;28;20029;-78
2022/06/09 03:59:38;;;;;;;9.07;3.03;;;;;;;21.24;42.68;100813.88;5034396;28;20053;-78
2022/06/09 04:02:04;;;;;;;15.45;3.47;;;;;;;21.47;41.92;100814.50;5034174;28;20026;-78
2022/06/09 04:04:29;;;;;;;17.55;3.92;;;;;;;21.51;41.86;100822.84;5033941;28;20542;-78
2022/06/09 04:06:55;;;;;;;16.52;2.90;;;;;;;21.51;41.93;100820.06;5034205;28;20022;-78
2022/06/09 04:09:21;;;;;;;8.88;2.42;;;;;;;21.55;41.88;100837.59;5034152;28;20087;-78
2022/06/09 04:11:47;;;;;;;16.83;3.55;;;;;;;21.51;42.20;100837.56;5034026;28;20022;-78
2022/06/09 04:14:12;;;;;;;19.25;3.55;;;;;;;21.53;42.00;100837.16;5034037;28;20030;-78
2022/06/09 04:16:44;;;;;;;11.77;2.88;;;;;;;21.65;41.79;100836.06;5033827;28;20036;-77
2022/06/09 04:19:12;;;;;;;15.55;3.30;;;;;;;21.64;41.87;100835.28;5033775;28;20044;-79
2022/06/09 04:21:38;;;;;;;14.18;3.00;;;;;;;21.70;41.68;100830.16;5033947;28;20033;-82
2022/06/09 04:24:04;;;;;;;13.27;3.05;;;;;;;21.69;41.71;100820.19;5033857;28;20065;-80
2022/06/09 04:26:33;;;;;;;17.27;4.20;;;;;;;21.72;41.60;100819.44;5033861;28;20050;-78
2022/06/09 04:28:59;;;;;;;11.95;3.05;;;;;;;21.77;41.70;100813.53;5030809;28;20033;-77
2022/06/09 04:31:25;;;;;;;8.90;2.30;;;;;;;21.80;41.45;100818.31;5033485;28;20033;-78
2022/06/09 04:33:50;;;;;;;16.15;2.83;;;;;;;21.78;41.66;100815.13;5033650;28;20101;-78
2022/06/09 04:36:18;;;;;;;12.60;3.75;;;;;;;21.78;41.59;100821.47;5033589;28;20061;-78
2022/06/09 04:38:44;;;;;;;11.25;3.28;;;;;;;21.76;41.83;100831.38;5033538;28;20029;-79
2022/06/09 04:41:11;;;;;;;15.07;3.17;;;;;;;21.76;41.86;100823.03;5033641;28;20032;-78
2022/06/09 04:43:38;;;;;;;15.95;4.18;;;;;;;21.79;41.79;100836.19;5033514;28;20036;-78
2022/06/09 04:46:06;;;;;;;18.10;3.53;;;;;;;21.84;41.84;100842.19;5033361;28;20037;-77
2022/06/09 04:48:33;;;;;;;14.55;4.20;;;;;;;21.83;42.10;100843.34;5033206;28;20033;-78
2022/06/09 04:50:59;;;;;;;12.48;3.10;;;;;;;21.93;41.84;100847.41;5033282;28;20067;-78
2022/06/09 04:53:25;;;;;;;19.63;3.53;;;;;;;22.01;41.90;100860.16;5033338;28;20026;-79
2022/06/09 04:55:51;;;;;;;15.38;3.90;;;;;;;21.93;42.07;100869.66;5033057;28;20037;-78
2022/06/09 04:58:17;;;;;;;13.00;3.78;;;;;;;22.03;41.89;100874.47;5031579;28;20548;-78
2022/06/09 05:00:43;;;;;;;12.85;2.63;;;;;;;22.15;41.97;100884.53;5033253;28;20104;-78
2022/06/09 05:03:11;;;;;;;15.40;3.53;;;;;;;22.23;41.61;100879.81;5033110;28;20032;-78
2022/06/09 05:05:40;;;;;;;15.10;3.28;;;;;;;22.31;41.74;100882.25;5033024;28;20060;-78
2022/06/09 05:08:06;;;;;;;12.48;3.47;;;;;;;22.35;41.64;100882.25;5033078;28;20021;-78
2022/06/09 05:10:32;;;;;;;13.10;3.85;;;;;;;22.36;41.46;100878.28;5032987;28;20067;-79
2022/06/09 05:12:59;;;;;;;15.07;3.97;;;;;;;22.42;41.35;100873.94;5015352;28;20443;-78
2022/06/09 05:15:26;;;;;;;28.08;5.10;;;;;;;22.41;41.32;100866.78;5033021;28;20087;-78
2022/06/09 05:17:52;;;;;;;11.05;3.33;;;;;;;22.46;41.79;100876.75;5031922;28;20037;-78
2022/06/09 05:20:21;;;;;;;10.95;3.10;;;;;;;22.51;41.57;100871.59;5032848;28;20420;-78
2022/06/09 05:22:47;;;;;;;10.87;3.20;;;;;;;22.65;41.66;100874.44;5032869;28;20427;-77
2022/06/09 05:25:14;;;;;;;16.25;3.80;;;;;;;22.73;41.30;100885.59;5032675;28;20344;-78
2022/06/09 05:27:40;;;;;;;16.58;4.05;;;;;;;22.71;41.43;100881.22;5015070;28;20025;-76
2022/06/09 05:30:09;;;;;;;13.35;3.67;;;;;;;22.70;41.54;100876.84;5032623;28;20026;-77
2022/06/09 05:32:34;;;;;;;19.08;4.47;;;;;;;22.88;41.27;100865.78;5032740;28;20028;-77
2022/06/09 05:35:00;;;;;;;14.07;3.08;;;;;;;23.02;41.26;100867.81;5032645;28;20104;-77
2022/06/09 05:44:50;;;;;;;14.70;3.70;;;;;;;23.05;41.30;100872.59;5032583;28;20017;-77
2022/06/09 05:45:40;;;;;;;18.05;3.67;;;;;;;23.23;40.92;100865.06;5032639;28;20063;-77
2022/06/09 05:48:06;;;;;;;11.90;3.63;;;;;;;23.31;40.99;100859.50;5014623;28;20029;-78
2022/06/09 05:50:32;;;;;;;16.40;3.80;;;;;;;23.11;41.15;100859.06;5031937;28;20041;-78
2022/06/09 05:52:57;;;;;;;16.58;3.97;;;;;;;23.23;40.92;100847.53;5032353;28;20029;-78
2022/06/09 05:55:23;;;;;;;11.35;2.60;;;;;;;23.13;40.87;100843.56;5032212;28;20049;-78
2022/06/09 05:57:49;;;;;;;15.00;3.72;;;;;;;23.12;40.89;100853.09;5032338;28;20026;-78
2022/06/09 06:00:15;;;;;;;13.82;3.13;;;;;;;23.05;40.98;100847.53;5032072;28;20033;-78
2022/06/09 06:02:42;;;;;;;19.20;4.15;;;;;;;23.19;40.72;100846.72;5032292;28;20025;-78
2022/06/09 06:06:33;;;;;;;11.23;3.08;;;;;;;23.13;40.91;100849.13;5014687;28;20041;-78
2022/06/09 06:07:53;;;;;;;18.80;3.90;;;;;;;23.11;41.01;100857.06;5032211;28;20077;-78
2022/06/09 06:10:19;;;;;;;16.42;3.17;;;;;;;23.02;41.33;100853.09;5032355;28;20026;-79
2022/06/09 06:12:44;;;;;;;13.23;3.63;;;;;;;22.85;41.93;100835.09;5032436;28;20060;-78
2022/06/09 06:15:10;;;;;;;16.55;3.42;;;;;;;22.98;41.67;100841.94;5032134;28;20029;-79
2022/06/09 06:17:36;;;;;;;16.08;3.35;;;;;;;22.94;41.92;100846.69;5031849;28;20404;-77
2022/06/09 06:20:02;;;;;;;15.13;3.40;;;;;;;23.09;41.54;100847.53;5014182;28;20029;-77
2022/06/09 06:22:27;;;;;;;12.70;3.50;;;;;;;22.93;41.87;100845.91;5032296;28;20033;-76
2022/06/09 06:24:53;;;;;;;23.98;4.13;;;;;;;22.78;42.59;100847.03;5014313;28;20080;-78
2022/06/09 06:27:18;;;;;;;11.50;3.05;;;;;;;23.03;41.78;100854.66;5014156;28;20025;-77
2022/06/09 06:29:44;;;;;;;14.30;3.40;;;;;;;23.07;41.63;100859.06;5034092;28;20033;-77
2022/06/09 06:32:10;;;;;;;13.15;3.88;;;;;;;23.02;42.11;100853.88;5036005;28;20032;-77
2022/06/09 06:34:35;;;;;;;13.65;4.45;;;;;;;22.71;42.85;100860.94;5035917;28;20033;-78
2022/06/09 06:37:02;;;;;;;9.30;3.17;;;;;;;22.63;43.07;100859.31;5035846;28;20029;-77
2022/06/09 06:39:27;;;;;;;12.57;3.58;;;;;;;22.61;43.27;100862.50;5035852;28;20120;-78
2022/06/09 06:41:53;;;;;;;14.23;2.90;;;;;;;22.52;43.40;100870.41;5035719;28;20041;-77
2022/06/09 06:44:19;;;;;;;13.63;3.58;;;;;;;22.53;43.60;100871.22;5035576;28;20432;-77
2022/06/09 06:46:44;;;;;;;14.73;3.10;;;;;;;22.46;43.51;100871.19;5035998;28;20048;-78
2022/06/09 06:49:10;;;;;;;11.90;3.33;;;;;;;22.63;43.31;100865.69;5035676;28;20021;-78
2022/06/09 06:51:36;;;;;;;18.75;4.30;;;;;;;22.59;43.58;100861.28;5017547;28;20025;-77
2022/06/09 06:54:05;;;;;;;10.80;3.28;;;;;;;22.62;43.64;100875.22;5017860;28;20025;-77
2022/06/09 06:56:32;;;;;;;9.52;3.28;;;;;;;22.64;43.72;100874.81;5035569;28;20025;-78
2022/06/09 06:58:58;;;;;;;16.55;3.90;;;;;;;22.69;43.87;100878.03;5035287;28;20096;-80
2022/06/09 07:01:24;;;;;;;9.65;3.35;;;;;;;22.84;43.29;100869.72;5017618;28;20030;-79
2022/06/09 07:03:50;;;;;;;9.63;3.38;;;;;;;22.83;43.58;100868.94;5035514;28;20045;-80
2022/06/09 07:06:16;;;;;;;12.35;3.00;;;;;;;22.92;43.62;100871.38;5035451;28;20025;-80
2022/06/09 07:08:41;;;;;;;12.73;3.70;;;;;;;22.91;43.64;100861.44;5035362;28;20021;-81
2022/06/09 07:11:08;;;;;;;8.95;2.67;;;;;;;22.79;43.52;100867.31;5035257;28;20586;-83
2022/06/09 07:13:36;;;;;;;14.00;4.07;;;;;;;22.69;43.93;100875.25;5017588;28;20022;-81
2022/06/09 07:16:02;;;;;;;11.55;3.00;;;;;;;22.64;44.01;100870.06;5017144;28;20120;-81
2022/06/09 07:18:29;;;;;;;10.65;2.97;;;;;;;22.84;43.29;100881.66;5034812;28;20124;-81
2022/06/09 07:20:55;;;;;;;11.70;3.08;;;;;;;22.82;43.79;100877.66;5017169;28;20032;-81
2022/06/09 07:23:22;;;;;;;13.73;3.30;;;;;;;22.88;43.66;100870.56;5017362;28;20368;-81
2022/06/09 07:25:48;;;;;;;14.65;3.05;;;;;;;22.96;43.40;100872.16;5016832;28;20108;-82
2022/06/09 07:28:14;;;;;;;11.30;3.00;;;;;;;22.84;43.53;100869.72;5016714;28;20488;-83
2022/06/09 07:30:40;;;;;;;14.68;3.85;;;;;;;22.78;43.74;100874.88;5016778;28;20021;-81
2022/06/09 07:33:06;;;;;;;8.55;2.75;;;;;;;22.81;43.58;100879.66;5034321;28;20399;-81
2022/06/09 07:35:34;;;;;;;7.53;2.50;;;;;;;22.88;43.70;100881.69;5034838;28;20025;-81
2022/06/09 07:38:00;;;;;;;7.32;2.25;;;;;;;22.83;43.83;100880.09;5017131;28;20037;-80
2022/06/09 07:40:26;;;;;;;15.23;4.15;;;;;;;22.82;43.73;100883.22;5016426;28;20461;-80
2022/06/09 07:42:52;;;;;;;12.00;3.63;;;;;;;22.89;43.98;100889.66;5034745;28;20100;-81
2022/06/09 07:45:18;;;;;;;11.63;2.45;;;;;;;22.96;43.60;100881.31;5034109;28;20112;-81
2022/06/09 07:47:44;;;;;;;10.40;2.85;;;;;;;22.83;44.08;100882.06;5016494;28;20021;-81
2022/06/09 07:50:12;;;;;;;7.18;2.30;;;;;;;22.94;44.13;100877.34;5013738;28;20025;-82
2022/06/09 07:52:39;;;;;;;7.47;2.40;;;;;;;23.16;43.71;100873.41;5034508;28;20025;-81
2022/06/09 07:55:05;;;;;;;7.55;2.35;;;;;;;23.22;43.33;100874.63;5016742;28;20063;-81
2022/06/09 07:57:31;;;;;;;8.52;2.50;;;;;;;23.18;43.21;100873.81;5034412;28;20053;-82
2022/06/09 07:59:57;;;;;;;6.30;2.72;;;;;;;23.07;43.57;100863.84;5033458;28;20448;-81
2022/06/09 08:02:22;;;;;;;9.25;2.38;;;;;;;22.87;44.04;100852.25;5015330;28;20098;-81
2022/06/09 08:04:48;;;;;;;8.98;2.30;;;;;;;22.98;43.93;100853.88;5033476;28;20037;-80
2022/06/09 08:07:13;;;;;;;8.05;2.38;;;;;;;22.86;44.57;100842.31;5009083;28;20401;-84
2022/06/09 08:09:39;;;;;;;9.18;2.47;;;;;;;23.06;44.13;100846.34;5009326;28;20550;-81
2022/06/09 08:12:05;;;;;;;8.30;2.88;;;;;;;23.09;44.08;100837.16;5024972;28;20038;-82
2022/06/09 08:14:31;;;;;;;14.73;3.55;;;;;;;23.13;44.14;100834.41;5013522;28;20053;-82
2022/06/09 08:16:56;;;;;;;10.48;3.00;;;;;;;23.14;44.29;100836.78;4995564;28;20144;-83
2022/06/09 08:19:22;;;;;;;8.75;2.72;;;;;;;23.23;43.82;100834.41;4995444;28;20046;-82
2022/06/09 08:21:48;;;;;;;11.77;3.00;;;;;;;23.14;44.63;100825.63;4995597;28;20025;-82
2022/06/09 08:24:14;;;;;;;7.75;2.70;;;;;;;23.11;44.85;100815.25;4995169;28;20446;-82
2022/06/09 08:26:40;;;;;;;7.75;2.50;;;;;;;23.11;44.70;100817.25;4995849;28;20037;-82
2022/06/09 08:29:06;;;;;;;12.80;3.30;;;;;;;23.19;44.40;100804.91;4996798;28;20040;-82
2022/06/09 08:31:32;;;;;;;9.57;2.40;;;;;;;23.19;44.46;100800.13;4995111;28;20034;-85
2022/06/09 08:33:58;;;;;;;7.90;2.17;;;;;;;23.34;44.30;100797.34;4995746;28;20029;-81
2022/06/09 08:36:23;;;;;;;8.55;1.80;;;;;;;23.25;44.36;100806.91;4994377;28;20063;-80
2022/06/09 08:38:49;;;;;;;5.68;2.30;;;;;;;23.39;44.02;100808.91;5029952;28;20139;-81
2022/06/09 08:41:36;;;;;;;9.57;3.15;;;;;;;23.32;44.57;100805.34;5032993;28;20049;-82
2022/06/09 08:44:36;;;;;;;10.10;3.30;;;;;;;23.46;44.10;100806.13;5020800;28;20104;-83
2022/06/09 08:47:17;;;;;;;7.28;2.40;;;;;;;23.44;44.43;100802.16;5012744;28;20033;-81
2022/06/09 08:50:16;;;;;;;8.77;2.83;;;;;;;23.34;44.06;100800.94;4996060;28;20061;-86
2022/06/09 08:53:08;;;;;;;13.27;3.15;;;;;;;23.32;44.25;100800.56;5024523;28;20447;-83
2022/06/09 08:55:49;;;;;;;15.50;3.83;;;;;;;23.31;44.59;100804.53;5021442;28;20105;-85
2022/06/09 08:58:49;;;;;;;10.10;2.78;;;;;;;23.43;44.43;100806.13;5005169;28;20391;-84
2022/06/09 09:01:38;;;;;;;15.05;2.47;;;;;;;23.44;44.08;100786.22;5002441;28;20037;-83
2022/06/09 09:04:22;;;;;;;10.45;2.90;;;;;;;23.33;44.24;100784.63;5019085;28;20022;-82
2022/06/09 09:06:53;;;;;;;9.50;2.63;;;;;;;23.35;44.79;100785.00;5012471;28;20102;-82
2022/06/09 09:09:27;;;;;;;10.68;2.65;;;;;;;23.43;44.70;100764.31;4995051;28;20060;-83
2022/06/09 09:12:00;;;;;;;10.60;2.40;;;;;;;23.23;45.04;100772.28;5024760;28;20063;-83
2022/06/09 09:14:39;;;;;;;9.65;2.78;;;;;;;23.40;44.63;100762.31;5034253;28;20043;-82
2022/06/09 09:17:24;;;;;;;6.60;2.90;;;;;;;23.49;44.65;100748.75;5034174;28;20041;-81
2022/06/09 09:20:12;;;;;;;8.02;2.25;;;;;;;23.56;44.70;100759.09;5033858;28;20048;-86
2022/06/09 09:23:02;;;;;;;5.13;2.00;;;;;;;23.63;44.66;100759.91;5034628;28;20024;-83
2022/06/09 09:26:12;;;;;;;6.15;2.47;;;;;;;23.55;45.00;100752.72;5051739;28;20049;-82
2022/06/09 09:28:37;;;;;;;8.07;2.15;;;;;;;23.89;44.42;100755.09;4969011;28;20469;-81
2022/06/09 09:31:21;;;;;;;9.85;2.35;;;;;;;23.63;45.11;100748.75;4981897;28;20073;-82
2022/06/09 09:33:48;;;;;;;7.88;3.05;;;;;;;23.85;44.98;100748.72;5027627;28;20432;-82
2022/06/09 09:36:27;;;;;;;10.02;2.10;;;;;;;23.41;45.86;100736.81;5013442;28;20049;-82
2022/06/09 09:39:01;;;;;;;9.73;2.55;;;;;;;24.01;44.82;100735.09;5031999;28;20037;-81
2022/06/09 09:41:33;;;;;;;9.07;2.10;;;;;;;24.09;45.16;100729.06;5015962;28;20057;-82
2022/06/09 09:44:21;;;;;;;5.85;2.60;;;;;;;24.31;44.81;100726.19;5034080;28;20345;-82
2022/06/09 09:46:53;;;;;;;7.65;2.50;;;;;;;24.28;45.47;100724.22;5033846;28;20043;-82
2022/06/09 09:49:29;;;;;;;5.47;1.65;;;;;;;24.35;45.22;100722.22;5034385;28;20095;-82
2022/06/09 09:51:57;;;;;;;5.90;1.52;;;;;;;24.37;45.49;100721.00;5051880;28;20041;-80
2022/06/09 09:54:37;;;;;;;5.72;2.10;;;;;;;24.38;45.58;100719.78;5034155;28;20033;-81
2022/06/09 09:57:18;;;;;;;6.00;1.70;;;;;;;24.46;45.62;100712.97;5033706;28;20041;-83
2022/06/09 09:59:52;;;;;;;6.13;1.85;;;;;;;24.49;45.72;100714.97;5032344;28;20033;-83
2022/06/09 10:08:36;;;;;;;4.03;1.92;;;;;;;25.06;45.11;100703.38;5031942;28;20128;-88
2022/06/09 10:11:53;;;;;;;6.60;2.33;;;;;;;24.96;44.84;100704.22;5000488;28;20419;-83
2022/06/09 10:13:51;;;;;;;6.70;2.22;;;;;;;24.65;45.44;100703.28;5016170;28;20102;-83
2022/06/09 10:16:19;;;;;;;7.43;1.70;;;;;;;24.63;45.44;100693.28;5015958;28;20496;-85
2022/06/09 10:18:48;;;;;;;5.93;2.03;;;;;;;24.83;45.34;100687.16;4998204;28;20132;-81
2022/06/09 10:21:14;;;;;;;5.72;1.48;;;;;;;25.12;44.62;100682.94;5014769;28;20046;-82
2022/06/09 10:23:52;;;;;;;6.68;2.25;;;;;;;24.97;45.33;100689.84;5015629;28;20483;-83
2022/06/09 10:26:22;;;;;;;6.18;1.85;;;;;;;25.02;45.33;100680.22;5016076;28;20046;-80
2022/06/09 10:29:24;;;;;;;6.40;1.83;;;;;;;25.08;45.98;100679.38;5034018;28;20033;-78
2022/06/09 10:32:13;;;;;;;8.65;2.58;;;;;;;25.10;45.83;100679.78;5017992;28;20054;-87
2022/06/09 10:34:51;;;;;;;8.27;2.07;;;;;;;25.02;45.92;100674.63;5035296;28;20025;-83
2022/06/09 10:37:26;;;;;;;7.10;2.20;;;;;;;25.06;45.67;100669.81;5035070;28;20277;-82
2022/06/09 10:40:10;;;;;;;7.28;2.05;;;;;;;24.98;46.01;100671.06;5017470;28;20030;-81
2022/06/09 10:42:50;;;;;;;11.82;2.25;;;;;;;25.14;45.82;100657.34;5029564;28;20048;-83
2022/06/09 10:45:18;;;;;;;4.03;2.22;;;;;;;25.17;45.92;100665.72;5037216;28;20029;-83
2022/06/09 10:56:40;;;;;;;6.30;2.58;;;;;;;25.63;45.28;100649.66;5055791;28;20574;-85
2022/06/09 10:59:33;;;;;;;5.60;1.80;;;;;;;25.67;45.62;100651.16;5027460;28;20064;-83
2022/06/09 11:02:03;;;;;;;6.07;1.88;;;;;;;25.86;45.35;100649.78;5021148;28;20030;-82
2022/06/09 11:04:36;;;;;;;6.20;1.73;;;;;;;25.58;46.25;100652.91;4997074;28;20021;-83
2022/06/09 11:07:25;;;;;;;6.47;1.73;;;;;;;25.85;45.12;100648.19;5015708;28;20030;-83
2022/06/09 11:10:21;;;;;;;6.50;2.22;;;;;;;25.69;45.84;100650.75;5032745;28;20072;-82
2022/06/09 11:12:57;;;;;;;4.55;1.58;;;;;;;25.82;45.80;100648.22;5017657;28;20025;-83
2022/06/09 11:16:00;;;;;;;6.43;2.05;;;;;;;25.97;46.01;100653.22;5009747;28;20033;-82
2022/06/09 11:18:50;;;;;;;5.18;1.83;;;;;;;26.19;45.64;100653.72;5022144;28;20034;-82
2022/06/09 11:21:22;;;;;;;1.98;0.95;;;;;;;25.81;45.77;100641.06;5001502;28;20022;-84
2022/06/09 11:24:08;;;;;;;5.43;2.00;;;;;;;25.65;46.34;100650.00;5016939;28;20083;-84
2022/06/09 11:26:47;;;;;;;2.70;1.20;;;;;;;25.72;46.25;100644.34;5011150;28;20459;-84
2022/06/09 11:29:21;;;;;;;4.90;1.40;;;;;;;26.20;45.29;100644.09;5019326;28;20045;-84
2022/06/09 11:32:00;;;;;;;5.30;1.70;;;;;;;26.29;45.42;100658.34;4997096;28;20068;-87
2022/06/09 11:34:51;;;;;;;4.45;1.77;;;;;;;26.52;44.89;100643.63;5023675;28;20041;-83
2022/06/09 11:37:32;;;;;;;2.85;1.45;;;;;;;26.66;44.72;100645.41;5054395;28;20029;-85
2022/06/09 11:40:25;;;;;;;4.47;1.48;;;;;;;26.70;44.90;100643.34;5054032;28;20129;-86
2022/06/09 11:43:00;;;;;;;8.55;2.45;;;;;;;26.83;44.73;100641.53;5007540;28;20037;-83
2022/06/09 11:45:30;;;;;;;7.30;2.78;;;;;;;27.00;44.58;100648.06;5053647;28;20060;-86
2022/06/09 11:47:57;;;;;;;;;;;;;;;26.97;44.18;100645.28;5037694;28;20360;-85
2022/06/09 11:50:31;;;;;;;7.75;2.15;;;;;;;26.95;44.87;100636.53;5010193;28;19913;-93
2022/06/09 11:52:59;;;;;;;7.90;2.65;;;;;;;27.18;44.64;100642.13;5017681;28;20033;-85
2022/06/09 11:55:59;;;;;;;9.63;2.45;;;;;;;26.95;44.23;100634.50;5014022;28;20037;-83
2022/06/09 11:58:34;;;;;;;7.20;1.77;;;;;;;27.20;43.99;100628.47;5014846;28;20026;-82
2022/06/09 12:01:21;;;;;;;5.47;1.40;;;;;;;27.53;44.07;100626.63;4999146;28;20033;-83